createdAt,value
2023-06-17T00:00:09.170Z,72.42
2023-06-17T00:02:30.670Z,70.59
2023-06-17T00:04:52.166Z,69.41
2023-06-17T00:07:14.026Z,69.40
2023-06-17T00:09:35.548Z,68.66
2023-06-17T00:11:57.927Z,68.27
2023-06-17T00:14:21.852Z,68.12
2023-06-17T00:16:46.426Z,67.66
2023-06-17T00:19:07.891Z,67.49
2023-06-17T00:21:29.735Z,67.45
2023-06-17T00:23:51.345Z,66.99
2023-06-17T00:26:12.836Z,66.60
2023-06-17T00:28:34.284Z,66.39
2023-06-17T00:30:55.959Z,66.15
2023-06-17T00:33:17.435Z,65.94
2023-06-17T00:35:38.873Z,67.75
2023-06-17T00:38:00.722Z,66.81
2023-06-17T00:40:22.544Z,66.35
2023-06-17T00:42:44.509Z,66.25
2023-06-17T00:45:06.921Z,67.37
2023-06-17T00:47:28.493Z,67.13
2023-06-17T00:49:50.741Z,67.26
2023-06-17T00:52:31.658Z,68.91
2023-06-17T00:54:57.845Z,69.12
2023-06-17T00:57:19.399Z,68.64
2023-06-17T00:59:43.809Z,68.68
2023-06-17T01:02:12.222Z,69.05
2023-06-17T01:04:34.508Z,68.43
2023-06-17T01:07:14.066Z,67.62
2023-06-17T01:09:39.460Z,67.96
2023-06-17T01:12:01.711Z,68.02
2023-06-17T01:14:23.989Z,68.10
2023-06-17T01:16:46.071Z,70.09
2023-06-17T01:19:19.596Z,71.83
2023-06-17T01:21:41.408Z,71.11
2023-06-17T01:24:04.186Z,70.01
2023-06-17T01:26:25.942Z,69.51
2023-06-17T01:28:47.572Z,70.09
2023-06-17T01:31:09.348Z,71.05
2023-06-17T01:33:30.996Z,73.33
2023-06-17T01:36:13.683Z,70.42
2023-06-17T01:38:44.845Z,72.76
2023-06-17T01:41:12.441Z,70.95
2023-06-17T01:43:35.791Z,70.59
2023-06-17T01:45:57.530Z,69.90
2023-06-17T01:48:19.016Z,70.59
2023-06-17T01:50:40.463Z,71.65
2023-06-17T01:53:01.941Z,72.05
2023-06-17T01:55:23.531Z,70.81
2023-06-17T01:57:45.076Z,70.32
2023-06-17T02:00:07.282Z,70.79
2023-06-17T02:02:29.300Z,69.89
2023-06-17T02:04:52.079Z,69.40
2023-06-17T02:07:13.562Z,69.52
2023-06-17T02:09:35.022Z,69.10
2023-06-17T02:11:56.548Z,68.74
2023-06-17T02:14:18.017Z,68.68
2023-06-17T02:16:43.572Z,68.39
2023-06-17T02:19:05.962Z,69.79
2023-06-17T02:21:27.420Z,69.40
2023-06-17T02:23:50.262Z,70.91
2023-06-17T02:26:11.696Z,70.38
2023-06-17T02:28:33.173Z,69.64
2023-06-17T02:30:54.662Z,71.09
2023-06-17T02:33:19.193Z,70.37
2023-06-17T02:35:40.979Z,70.32
2023-06-17T02:38:02.447Z,72.68
2023-06-17T02:40:24.003Z,71.45
2023-06-17T02:42:45.477Z,72.22
2023-06-17T02:45:12.366Z,74.00
2023-06-17T02:47:34.389Z,72.81
2023-06-17T02:49:55.860Z,72.67
2023-06-17T02:52:17.321Z,71.58
2023-06-17T02:54:38.764Z,70.91
2023-06-17T02:57:00.329Z,70.56
2023-06-17T02:59:23.595Z,71.40
2023-06-17T03:01:45.873Z,70.60
2023-06-17T03:04:07.431Z,71.12
2023-06-17T03:06:33.120Z,70.38
2023-06-17T03:08:54.871Z,69.75
2023-06-17T03:11:16.901Z,69.72
2023-06-17T03:13:38.398Z,69.15
2023-06-17T03:16:02.377Z,68.86
2023-06-17T03:18:23.945Z,68.87
2023-06-17T03:20:45.581Z,69.05
2023-06-17T03:23:07.036Z,70.62
2023-06-17T03:25:28.488Z,69.53
2023-06-17T03:27:49.931Z,69.44
2023-06-17T03:30:12.079Z,69.03
2023-06-17T03:32:33.556Z,68.67
2023-06-17T03:34:55.145Z,69.69
2023-06-17T03:37:16.589Z,70.46
2023-06-17T03:39:38.095Z,69.84
2023-06-17T03:41:59.535Z,69.53
2023-06-17T03:44:20.999Z,69.16
2023-06-17T03:46:42.446Z,70.26
2023-06-17T03:49:03.921Z,70.28
2023-06-17T03:51:25.395Z,69.66
2023-06-17T03:53:47.386Z,69.53
2023-06-17T03:56:08.873Z,69.55
2023-06-17T03:58:30.647Z,69.26
2023-06-17T04:00:52.932Z,70.16
2023-06-17T04:03:15.458Z,71.80
2023-06-17T04:05:37.175Z,70.31
2023-06-17T04:08:00.596Z,69.85
2023-06-17T04:10:22.349Z,69.53
2023-06-17T04:12:44.221Z,69.47
2023-06-17T04:15:07.613Z,69.32
2023-06-17T04:17:29.192Z,68.83
2023-06-17T04:19:50.689Z,68.88
2023-06-17T04:22:12.144Z,68.59
2023-06-17T04:24:33.725Z,68.25
2023-06-17T04:26:55.280Z,68.92
2023-06-17T04:29:16.788Z,68.80
2023-06-17T04:31:41.871Z,68.58
2023-06-17T04:34:03.719Z,68.30
2023-06-17T04:36:25.163Z,68.35
2023-06-17T04:38:50.194Z,68.48
2023-06-17T04:41:12.554Z,69.07
2023-06-17T04:43:39.879Z,68.93
2023-06-17T04:46:02.243Z,69.23
2023-06-17T04:48:23.705Z,69.02
2023-06-17T04:50:45.179Z,68.83
2023-06-17T04:53:06.798Z,68.99
2023-06-17T04:55:28.267Z,68.99
2023-06-17T04:57:49.745Z,68.91
2023-06-17T05:00:12.216Z,69.04
2023-06-17T05:02:33.758Z,68.99
2023-06-17T05:04:55.206Z,68.95
2023-06-17T05:07:16.683Z,69.17
2023-06-17T05:09:38.168Z,69.30
2023-06-17T05:11:59.630Z,69.33
2023-06-17T05:14:21.260Z,69.08
2023-06-17T05:16:42.810Z,69.08
2023-06-17T05:19:04.420Z,69.26
2023-06-17T05:21:25.957Z,69.54
2023-06-17T05:23:47.433Z,69.74
2023-06-17T05:26:08.902Z,69.44
2023-06-17T05:28:30.410Z,69.72
2023-06-17T05:30:51.949Z,69.78
2023-06-17T05:33:13.521Z,70.35
2023-06-17T05:35:35.056Z,69.93
2023-06-17T05:37:56.554Z,70.39
2023-06-17T05:40:18.267Z,71.37
2023-06-17T05:42:39.924Z,70.95
2023-06-17T05:45:01.432Z,73.00
2023-06-17T05:47:22.960Z,71.48
2023-06-17T05:49:44.454Z,70.75
2023-06-17T05:52:07.126Z,70.43
2023-06-17T05:54:28.615Z,70.33
2023-06-17T05:56:51.407Z,70.22
2023-06-17T05:59:12.862Z,71.09
2023-06-17T06:01:34.378Z,71.98
2023-06-17T06:03:55.910Z,71.79
2023-06-17T06:06:17.405Z,72.58
2023-06-17T06:08:38.821Z,73.62
2023-06-17T06:11:00.560Z,72.42
2023-06-17T06:13:22.060Z,71.71
2023-06-17T06:15:43.529Z,72.13
2023-06-17T06:18:06.647Z,71.60
2023-06-17T06:20:28.362Z,71.24
2023-06-17T06:22:49.835Z,70.86
2023-06-17T06:25:11.638Z,70.58
2023-06-17T06:27:33.090Z,70.95
2023-06-17T06:29:54.583Z,69.50
2023-06-17T06:32:16.036Z,69.95
2023-06-17T06:34:37.488Z,69.87
2023-06-17T06:36:59.459Z,69.14
2023-06-17T06:39:20.949Z,68.84
2023-06-17T06:41:42.378Z,66.55
2023-06-17T06:44:04.066Z,65.22
2023-06-17T06:46:25.568Z,64.93
2023-06-17T06:48:47.116Z,62.88
2023-06-17T06:51:08.554Z,62.41
2023-06-17T06:53:30.011Z,63.11
2023-06-17T06:55:51.738Z,63.75
2023-06-17T06:58:13.216Z,64.38
2023-06-17T07:00:34.697Z,63.24
2023-06-17T07:02:57.465Z,64.46
2023-06-17T07:05:19.139Z,62.73
2023-06-17T07:07:40.709Z,63.09
2023-06-17T07:10:03.396Z,65.01
2023-06-17T07:12:24.868Z,62.77
2023-06-17T07:14:46.309Z,60.59
2023-06-17T07:17:07.912Z,57.46
2023-06-17T07:19:29.467Z,58.15
2023-06-17T07:21:51.044Z,56.37
2023-06-17T07:24:12.558Z,56.66
2023-06-17T07:26:34.092Z,55.26
2023-06-17T07:28:56.336Z,53.50
2023-06-17T07:31:17.943Z,51.61
2023-06-17T07:33:40.737Z,51.07
2023-06-17T07:36:02.226Z,51.67
2023-06-17T07:38:24.865Z,50.02
2023-06-17T07:40:49.578Z,49.75
2023-06-17T07:43:11.090Z,49.30
2023-06-17T07:45:32.704Z,48.31
2023-06-17T07:47:54.284Z,48.80
2023-06-17T07:50:15.873Z,49.02
2023-06-17T07:52:37.659Z,48.33
2023-06-17T07:54:59.623Z,48.22
2023-06-17T07:57:21.242Z,48.21
2023-06-17T07:59:43.646Z,46.87
2023-06-17T08:02:08.077Z,47.53
2023-06-17T08:04:31.775Z,48.26
2023-06-17T08:06:53.522Z,47.98
2023-06-17T08:09:15.094Z,47.52
2023-06-17T08:11:36.590Z,48.15
2023-06-17T08:13:58.153Z,48.61
2023-06-17T08:16:19.722Z,47.55
2023-06-17T08:18:41.253Z,48.53
2023-06-17T08:21:02.781Z,46.67
2023-06-17T08:23:24.380Z,45.20
2023-06-17T08:25:46.910Z,45.76
2023-06-17T08:28:09.101Z,45.28
2023-06-17T08:30:31.011Z,44.70
2023-06-17T08:32:52.689Z,44.97
2023-06-17T08:35:15.459Z,44.82
2023-06-17T08:37:37.026Z,44.55
2023-06-17T08:39:58.628Z,44.20
2023-06-17T08:42:20.067Z,44.47
2023-06-17T08:44:44.022Z,44.10
2023-06-17T08:47:06.588Z,44.14
2023-06-17T08:49:29.111Z,43.94
2023-06-17T08:51:51.233Z,42.20
2023-06-17T08:54:13.126Z,42.30
2023-06-17T08:56:35.151Z,42.36
2023-06-17T08:58:57.231Z,42.15
2023-06-17T09:01:19.315Z,42.75
2023-06-17T09:03:45.294Z,42.13
2023-06-17T09:06:16.006Z,40.62
2023-06-17T09:08:37.521Z,41.14
2023-06-17T09:11:06.388Z,41.59
2023-06-17T09:13:27.910Z,41.07
2023-06-17T09:15:49.493Z,40.89
2023-06-17T09:18:11.391Z,39.73
2023-06-17T09:20:33.611Z,39.43
2023-06-17T09:22:55.077Z,39.14
2023-06-17T09:25:17.854Z,39.84
2023-06-17T09:30:17.508Z,39.50
2023-06-17T09:32:43.972Z,37.85
2023-06-17T09:35:06.471Z,37.61
2023-06-17T09:37:28.168Z,37.91
2023-06-17T09:39:49.955Z,38.40
2023-06-17T09:42:12.044Z,36.72
2023-06-17T09:44:34.025Z,36.33
2023-06-17T09:47:05.977Z,37.82
2023-06-17T09:49:27.883Z,36.26
2023-06-17T09:51:50.040Z,37.19
2023-06-17T09:54:11.833Z,35.96
2023-06-17T09:56:34.279Z,37.09
2023-06-17T09:58:57.448Z,36.15
2023-06-17T10:01:18.982Z,36.18
2023-06-17T10:03:43.420Z,35.64
2023-06-17T10:06:12.033Z,35.33
2023-06-17T10:08:37.404Z,35.23
2023-06-17T10:11:01.189Z,34.85
2023-06-17T10:13:24.281Z,34.58
2023-06-17T10:15:48.885Z,33.67
2023-06-17T10:18:11.725Z,34.08
2023-06-17T10:20:33.805Z,34.17
2023-06-17T10:22:56.620Z,32.71
2023-06-17T10:25:19.088Z,33.39
2023-06-17T10:27:41.655Z,33.68
2023-06-17T10:30:24.851Z,33.31
2023-06-17T10:32:53.302Z,32.86
2023-06-17T10:35:14.858Z,32.31
2023-06-17T10:37:45.825Z,32.11
2023-06-17T10:40:27.700Z,30.96
2023-06-17T10:43:04.356Z,30.74
2023-06-17T10:45:26.947Z,31.08
2023-06-17T10:47:48.637Z,30.76
2023-06-17T10:50:12.893Z,30.52
2023-06-17T10:52:34.354Z,31.04
2023-06-17T10:54:56.721Z,31.19
2023-06-17T10:57:32.935Z,31.33
2023-06-17T10:59:54.447Z,30.96
2023-06-17T11:02:15.993Z,30.20
2023-06-17T11:04:42.088Z,29.90
2023-06-17T11:07:04.353Z,30.04
2023-06-17T11:09:26.892Z,29.98
2023-06-17T11:11:48.428Z,29.57
2023-06-17T11:14:09.926Z,29.57
2023-06-17T11:16:31.447Z,29.91
2023-06-17T11:18:52.952Z,30.31
2023-06-17T11:21:16.293Z,30.27
2023-06-17T11:23:41.031Z,30.08
2023-06-17T11:26:04.019Z,28.80
2023-06-17T11:28:25.567Z,29.06
2023-06-17T11:30:47.188Z,29.30
2023-06-17T11:33:09.389Z,28.34
2023-06-17T11:35:31.102Z,28.40
2023-06-17T11:37:52.960Z,26.53
2023-06-17T11:40:14.562Z,26.47
2023-06-17T11:42:36.398Z,26.79
2023-06-17T11:44:58.182Z,25.70
2023-06-17T11:47:32.980Z,25.12
2023-06-17T11:49:58.633Z,25.41
2023-06-17T11:52:20.105Z,26.47
2023-06-17T11:54:46.934Z,26.27
2023-06-17T11:57:08.812Z,26.73
2023-06-17T11:59:31.508Z,26.63
2023-06-17T12:01:55.141Z,26.58
2023-06-17T12:04:16.806Z,25.88
2023-06-17T12:06:38.405Z,26.42
2023-06-17T12:09:04.979Z,25.09
2023-06-17T12:11:31.691Z,24.04
2023-06-17T12:13:53.521Z,23.28
2023-06-17T12:16:32.202Z,22.04
2023-06-17T12:18:53.789Z,22.03
2023-06-17T12:21:15.396Z,20.64
2023-06-17T12:23:36.901Z,20.57
2023-06-17T12:25:58.631Z,21.09
2023-06-17T12:28:23.798Z,20.83
2023-06-17T12:30:45.304Z,22.35
2023-06-17T12:33:06.900Z,21.30
2023-06-17T12:35:28.550Z,21.83
2023-06-17T12:37:52.867Z,23.29
2023-06-17T12:40:14.430Z,23.76
2023-06-17T12:42:36.799Z,22.73
2023-06-17T12:44:58.280Z,21.34
2023-06-17T12:47:20.416Z,20.88
2023-06-17T12:49:42.836Z,21.12
2023-06-17T12:52:04.743Z,19.93
2023-06-17T12:54:26.242Z,19.96
2023-06-17T12:56:48.430Z,19.51
2023-06-17T12:59:09.924Z,19.15
2023-06-17T13:01:31.448Z,19.21
2023-06-17T13:03:52.989Z,19.29
2023-06-17T13:06:14.569Z,19.31
2023-06-17T13:08:36.167Z,19.06
2023-06-17T13:10:57.602Z,17.86
2023-06-17T13:13:19.118Z,17.71
2023-06-17T13:15:40.769Z,18.13
2023-06-17T13:18:02.420Z,18.57
2023-06-17T13:20:24.155Z,18.84
2023-06-17T13:22:46.298Z,20.78
2023-06-17T13:25:08.411Z,20.49
2023-06-17T13:27:30.904Z,21.82
2023-06-17T13:29:52.556Z,20.94
2023-06-17T13:32:14.188Z,20.26
2023-06-17T13:34:35.636Z,19.67
2023-06-17T13:36:57.165Z,19.28
2023-06-17T13:39:18.668Z,18.97
2023-06-17T13:41:40.264Z,18.57
2023-06-17T13:44:02.220Z,18.85
2023-06-17T13:46:23.740Z,19.31
2023-06-17T13:48:45.231Z,20.23
2023-06-17T13:51:07.097Z,20.64
2023-06-17T13:53:28.592Z,21.79
2023-06-17T13:55:50.152Z,22.25
2023-06-17T13:58:11.823Z,23.36
2023-06-17T14:00:33.372Z,23.61
2023-06-17T14:02:54.954Z,23.65
2023-06-17T14:05:16.644Z,24.43
2023-06-17T14:07:38.186Z,22.40
2023-06-17T14:09:59.700Z,22.89
2023-06-17T14:12:21.511Z,22.66
2023-06-17T14:14:43.007Z,22.55
2023-06-17T14:17:04.726Z,21.53
2023-06-17T14:19:26.282Z,21.30
2023-06-17T14:21:57.088Z,20.07
2023-06-17T14:24:19.449Z,19.43
2023-06-17T14:26:41.703Z,18.44
2023-06-17T14:29:04.152Z,18.99
2023-06-17T14:31:25.680Z,18.59
2023-06-17T14:33:47.158Z,17.96
2023-06-17T14:36:08.620Z,17.14
2023-06-17T14:38:30.090Z,16.33
2023-06-17T14:40:51.572Z,15.89
2023-06-17T14:43:13.026Z,16.21
2023-06-17T14:45:34.632Z,15.66
2023-06-17T14:47:56.230Z,16.36
2023-06-17T14:50:18.136Z,17.90
2023-06-17T14:52:40.583Z,19.14
2023-06-17T14:55:02.124Z,18.84
2023-06-17T14:57:23.888Z,18.52
2023-06-17T14:59:45.689Z,17.14
2023-06-17T15:02:13.218Z,18.36
2023-06-17T15:04:34.685Z,18.10
2023-06-17T15:06:56.152Z,19.00
2023-06-17T15:09:30.324Z,20.50
2023-06-17T15:11:53.624Z,21.36
2023-06-17T15:14:15.087Z,21.55
2023-06-17T15:16:36.613Z,19.97
2023-06-17T15:18:58.107Z,20.64
2023-06-17T15:21:19.578Z,19.67
2023-06-17T15:23:41.028Z,18.78
2023-06-17T15:26:02.796Z,17.62
2023-06-17T15:28:24.261Z,17.24
2023-06-17T15:30:46.361Z,16.79
2023-06-17T15:33:07.899Z,17.23
2023-06-17T15:35:30.077Z,16.87
2023-06-17T15:37:51.837Z,16.61
2023-06-17T15:40:13.442Z,15.83
2023-06-17T15:42:34.999Z,15.46
2023-06-17T15:44:56.482Z,16.11
2023-06-17T15:47:17.967Z,15.69
2023-06-17T15:49:39.500Z,15.62
2023-06-17T15:52:01.205Z,15.70
2023-06-17T15:54:26.517Z,15.00
2023-06-17T15:56:48.172Z,14.66
2023-06-17T15:59:09.610Z,14.45
2023-06-17T16:01:31.378Z,15.01
2023-06-17T16:03:53.060Z,15.01
2023-06-17T16:06:14.637Z,14.78
2023-06-17T16:08:36.827Z,15.23
2023-06-17T16:10:58.278Z,14.65
2023-06-17T16:13:19.760Z,15.42
2023-06-17T16:15:41.329Z,16.01
2023-06-17T16:18:02.888Z,15.37
2023-06-17T16:20:24.406Z,14.38
2023-06-17T16:22:45.864Z,14.95
2023-06-17T16:25:08.602Z,16.10
2023-06-17T16:27:35.963Z,15.80
2023-06-17T16:29:57.591Z,15.67
2023-06-17T16:32:19.246Z,15.85
2023-06-17T16:34:40.834Z,15.40
2023-06-17T16:37:02.317Z,16.41
2023-06-17T16:39:23.778Z,16.38
2023-06-17T16:41:45.484Z,15.54
2023-06-17T16:44:07.487Z,16.20
2023-06-17T16:46:29.255Z,16.26
2023-06-17T16:48:50.723Z,16.22
2023-06-17T16:51:12.437Z,16.61
2023-06-17T16:53:34.453Z,16.23
2023-06-17T16:55:55.994Z,16.66
2023-06-17T16:58:17.547Z,17.19
2023-06-17T17:00:39.125Z,16.92
2023-06-17T17:03:00.675Z,16.50
2023-06-17T17:05:22.867Z,16.65
2023-06-17T17:07:44.313Z,17.35
2023-06-17T17:10:06.222Z,17.68
2023-06-17T17:12:27.672Z,18.01
2023-06-17T17:14:49.199Z,17.85
2023-06-17T17:17:12.491Z,17.70
2023-06-17T17:19:35.128Z,17.85
2023-06-17T17:21:56.627Z,18.71
2023-06-17T17:24:18.190Z,18.53
2023-06-17T17:26:39.658Z,18.36
2023-06-17T17:29:01.584Z,18.35
2023-06-17T17:31:23.026Z,18.38
2023-06-17T17:33:45.159Z,18.72
2023-06-17T17:36:07.084Z,19.09
2023-06-17T17:38:28.566Z,19.51
2023-06-17T17:40:50.047Z,19.77
2023-06-17T17:43:11.527Z,19.58
2023-06-17T17:45:32.981Z,19.77
2023-06-17T17:47:54.543Z,20.17
2023-06-17T17:50:16.066Z,19.59
2023-06-17T17:52:37.978Z,19.60
2023-06-17T17:55:02.882Z,19.36
2023-06-17T17:57:24.658Z,19.77
2023-06-17T17:59:46.160Z,20.29
2023-06-17T18:02:07.628Z,20.36
2023-06-17T18:04:29.084Z,20.91
2023-06-17T18:06:50.625Z,22.11
2023-06-17T18:09:12.065Z,21.40
2023-06-17T18:11:33.547Z,23.55
2023-06-17T18:13:55.066Z,22.48
2023-06-17T18:16:16.688Z,23.60
2023-06-17T18:18:38.164Z,23.18
2023-06-17T18:20:59.651Z,23.89
2023-06-17T18:23:21.278Z,24.84
2023-06-17T18:25:42.758Z,24.76
2023-06-17T18:28:04.420Z,25.18
2023-06-17T18:30:26.168Z,24.60
2023-06-17T18:32:47.676Z,25.32
2023-06-17T18:35:09.281Z,27.66
2023-06-17T18:37:30.768Z,27.92
2023-06-17T18:39:52.325Z,26.84
2023-06-17T18:42:13.894Z,25.37
2023-06-17T18:44:35.376Z,25.03
2023-06-17T18:46:57.429Z,25.75
2023-06-17T18:49:24.096Z,26.78
2023-06-17T18:51:45.557Z,26.95
2023-06-17T18:54:07.064Z,27.14
2023-06-17T18:56:28.717Z,27.85
2023-06-17T18:58:50.319Z,28.25
2023-06-17T19:01:11.812Z,27.97
2023-06-17T19:03:34.325Z,28.18
2023-06-17T19:05:55.971Z,28.94
2023-06-17T19:08:17.445Z,29.15
2023-06-17T19:10:38.964Z,30.02
2023-06-17T19:13:00.495Z,29.77
2023-06-17T19:15:21.996Z,30.25
2023-06-17T19:17:43.549Z,30.47
2023-06-17T19:20:09.452Z,30.69
2023-06-17T19:22:30.921Z,32.01
2023-06-17T19:24:52.601Z,31.60
2023-06-17T19:27:14.255Z,32.00
2023-06-17T19:29:36.244Z,31.96
2023-06-17T19:31:57.818Z,32.47
2023-06-17T19:34:19.691Z,33.81
2023-06-17T19:36:41.142Z,33.72
2023-06-17T19:39:02.742Z,33.92
2023-06-17T19:41:24.193Z,34.08
2023-06-17T19:43:48.027Z,34.85
2023-06-17T19:46:09.545Z,35.02
2023-06-17T19:48:31.574Z,35.45
2023-06-17T19:50:53.173Z,36.68
2023-06-17T19:53:14.622Z,36.35
2023-06-17T19:55:36.301Z,36.45
2023-06-17T19:57:58.016Z,36.48
2023-06-17T20:00:19.887Z,36.97
2023-06-17T20:02:41.683Z,36.83
2023-06-17T20:05:03.996Z,38.78
2023-06-17T20:07:25.673Z,39.23
2023-06-17T20:09:47.181Z,39.06
2023-06-17T20:12:08.808Z,39.10
2023-06-17T20:14:30.639Z,40.07
2023-06-17T20:16:52.923Z,39.96
2023-06-17T20:19:16.298Z,40.82
2023-06-17T20:21:37.765Z,41.00
2023-06-17T20:23:59.702Z,40.67
2023-06-17T20:26:21.184Z,40.33
2023-06-17T20:28:43.972Z,41.87
2023-06-17T20:31:05.527Z,42.25
2023-06-17T20:33:26.990Z,41.88
2023-06-17T20:35:50.416Z,41.72
2023-06-17T20:38:11.941Z,42.25
2023-06-17T20:40:33.448Z,42.75
2023-06-17T20:42:55.002Z,42.38
2023-06-17T20:45:16.903Z,42.97
2023-06-17T20:47:38.433Z,43.92
2023-06-17T20:49:59.990Z,43.81
2023-06-17T20:52:21.720Z,43.47
2023-06-17T20:54:43.223Z,43.44
2023-06-17T20:57:05.038Z,43.68
2023-06-17T20:59:26.635Z,44.88
2023-06-17T21:01:48.222Z,44.11
2023-06-17T21:04:09.727Z,44.34
2023-06-17T21:06:32.432Z,45.09
2023-06-17T21:08:54.267Z,45.34
2023-06-17T21:11:16.399Z,44.93
2023-06-17T21:13:37.845Z,45.21
2023-06-17T21:15:59.363Z,45.33
2023-06-17T21:18:21.559Z,45.36
2023-06-17T21:20:43.246Z,45.20
2023-06-17T21:23:04.726Z,45.29
2023-06-17T21:25:26.602Z,45.34
2023-06-17T21:27:48.267Z,45.75
2023-06-17T21:30:10.130Z,45.91
2023-06-17T21:32:31.574Z,45.73
2023-06-17T21:34:53.074Z,46.19
2023-06-17T21:37:14.507Z,46.06
2023-06-17T21:39:35.982Z,46.27
2023-06-17T21:41:57.511Z,46.76
2023-06-17T21:44:19.087Z,46.73
2023-06-17T21:46:40.609Z,47.05
2023-06-17T21:49:02.127Z,47.45
2023-06-17T21:51:23.777Z,47.24
2023-06-17T21:53:45.423Z,48.29
2023-06-17T21:56:06.896Z,48.54
2023-06-17T21:58:28.354Z,48.37
2023-06-17T22:00:50.603Z,48.32
2023-06-17T22:03:12.273Z,48.29
2023-06-17T22:05:33.907Z,49.38
2023-06-17T22:07:55.589Z,49.08
2023-06-17T22:10:17.045Z,49.02
2023-06-17T22:12:38.604Z,49.33
2023-06-17T22:15:02.567Z,49.08
2023-06-17T22:17:25.370Z,50.54
2023-06-17T22:19:47.767Z,50.21
2023-06-17T22:22:09.262Z,50.20
2023-06-17T22:24:31.368Z,50.00
2023-06-17T22:26:52.906Z,50.09
2023-06-17T22:29:14.379Z,50.38
2023-06-17T22:31:35.996Z,51.84
2023-06-17T22:33:57.436Z,51.22
2023-06-17T22:36:18.943Z,52.40
2023-06-17T22:38:40.468Z,53.01
2023-06-17T22:41:01.967Z,52.09
2023-06-17T22:43:23.441Z,51.91
2023-06-17T22:45:45.611Z,52.18
2023-06-17T22:48:07.859Z,52.21
2023-06-17T22:50:29.373Z,54.50
2023-06-17T22:52:50.822Z,54.86
2023-06-17T22:55:12.280Z,54.69
2023-06-17T22:57:38.875Z,55.14
2023-06-17T23:00:00.431Z,55.92
2023-06-17T23:02:22.070Z,55.36
2023-06-17T23:04:43.597Z,54.38
2023-06-17T23:07:05.678Z,54.01
2023-06-17T23:09:27.173Z,53.72
2023-06-17T23:11:48.650Z,53.61
2023-06-17T23:14:10.189Z,55.18
2023-06-17T23:16:31.829Z,55.93
2023-06-17T23:18:53.283Z,57.17
2023-06-17T23:21:14.797Z,56.20
2023-06-17T23:23:37.574Z,55.86
2023-06-17T23:26:00.375Z,55.39
2023-06-17T23:28:21.918Z,56.82
2023-06-17T23:30:43.993Z,56.14
2023-06-17T23:33:05.796Z,55.84
2023-06-17T23:35:27.284Z,55.84
2023-06-17T23:37:48.780Z,55.57
2023-06-17T23:40:10.958Z,55.19
2023-06-17T23:42:32.712Z,55.31
2023-06-17T23:44:54.196Z,55.71
2023-06-17T23:47:18.985Z,55.43
2023-06-17T23:49:40.458Z,57.68
2023-06-17T23:52:02.088Z,58.33
2023-06-17T23:54:23.553Z,57.50
2023-06-17T23:56:45.025Z,56.62
2023-06-17T23:59:06.528Z,56.53
